Brian O'daniels — WDD7438 — position and weather

sailwx.info

Track history (hours):
 
Tides and Currents Weather Stations Pressure Air Temp Water Temp Dewpoint Dewpoint Depression Visibility Wind Speed Wind Dir Waves Ship Positions

Brian O'daniels

Owner: Florida Marine, LLC, Mandeville, LA. More information available from US FCC via Universal Licensing System and Coast Guard Vessel Documentation Center.

Last reported at 2018-Feb-19 06:00 UTC. Time now 2018-Feb-19 06:12 UTC.
Position N 29°31' W 094°31'.

Length 26 m; draft 2.7 m.

Type: Towing. MMSI: 367186410.

Date/timePositionNaut miles runAvg speedWind from/ knotsBaromVisibWave heightAir tempDewpointWater temp
2018-Feb-19 06:00N 29°31' W 094°31'0 0.0
2018-Feb-19 05:30N 29°31' W 094°31'0 0.0
2018-Feb-19 04:57N 29°31' W 094°31'0 0.0
2018-Feb-19 04:30N 29°31' W 094°31'0 0.0
2018-Feb-19 04:00N 29°31' W 094°31'0 0.0
2018-Feb-19 02:27N 29°31' W 094°31'0 0.0
2018-Feb-19 01:09N 29°31' W 094°31'0 0.0
2018-Feb-18 23:06N 29°31' W 094°31'0 0.0
2018-Feb-18 23:00N 29°31' W 094°31'0 0.0
2018-Feb-18 18:39N 29°31' W 094°31'0 0.0
2018-Feb-18 18:30N 29°31' W 094°31'0 0.0
2018-Feb-18 17:57N 29°31' W 094°31'0 0.0
2018-Feb-18 17:27N 29°31' W 094°31'0 0.0
2018-Feb-18 16:27N 29°31' W 094°31'0 0.0
2018-Feb-18 15:09N 29°31' W 094°31'0 0.0
2018-Feb-18 15:00N 29°31' W 094°31'0 0.0
2018-Feb-18 11:32N 29°31' W 094°31'0 0.0
2018-Feb-18 09:23N 29°31' W 094°31'0 0.0
2018-Feb-18 08:59N 29°31' W 094°31'0 0.0
2018-Feb-18 08:29N 29°31' W 094°31'0 0.0
2018-Feb-18 07:56N 29°31' W 094°31'0 0.0
2018-Feb-18 02:41N 29°31' W 094°31'0 0.0
2018-Feb-18 02:26N 29°31' W 094°31'0 0.0
2018-Feb-18 01:44N 29°31' W 094°31'0 0.0
2018-Feb-18 01:29N 29°31' W 094°31'0 0.0
2018-Feb-18 00:20N 29°31' W 094°31'0 0.1
2018-Feb-17 23:46N 29°31' W 094°31'1 1.6
2018-Feb-17 23:00N 29°30' W 094°33'0 0.6
2018-Feb-17 22:27N 29°30' W 094°33'2 3.8
2018-Feb-17 21:57N 29°29' W 094°35'2 3.4
2018-Feb-17 21:22N 29°29' W 094°37'16 1.0
2018-Feb-17 06:12N 29°22' W 094°53'0 0.0
2018-Feb-17 05:57N 29°22' W 094°53'0 0.1
2018-Feb-17 02:15N 29°22' W 094°53'1 2.3
2018-Feb-17 01:59N 29°23' W 094°53'3 5.0
2018-Feb-17 01:29N 29°22' W 094°50'2 3.6
2018-Feb-17 01:00N 29°22' W 094°48'2 3.5
2018-Feb-17 00:27N 29°24' W 094°49'2 3.0
2018-Feb-16 23:38N 29°26' W 094°50'1 3.5
2018-Feb-16 23:29N 29°26' W 094°50'2 4.0
2018-Feb-16 22:59N 29°28' W 094°51'2 3.3
2018-Feb-16 22:30N 29°30' W 094°52'2 3.5
2018-Feb-16 22:01N 29°31' W 094°53'2 3.8
2018-Feb-16 21:30N 29°33' W 094°54'3 6.5
2018-Feb-16 21:01N 29°35' W 094°56'3 6.3
2018-Feb-16 20:31N 29°38' W 094°58'4 7.1
2018-Feb-16 20:01N 29°42' W 094°60'3 5.3
2018-Feb-16 19:30N 29°44' W 095°02'3 5.5
2018-Feb-16 19:00N 29°45' W 095°04'1 2.1
2018-Feb-16 18:28N 29°46' W 095°05'1 2.3
2018-Feb-16 17:55N 29°47' W 095°04'0 0.0
2018-Feb-16 17:28N 29°47' W 095°04'0 0.0
2018-Feb-16 01:47N 29°47' W 095°04'0 0.0
2018-Feb-16 01:29N 29°47' W 095°04'0 0.0
2018-Feb-15 05:43N 29°47' W 095°04'0 0.0
2018-Feb-15 05:28N 29°47' W 095°04'  
2018-Feb-12 10:41N 29°47' W 095°05'1 3.0
2018-Feb-12 10:25N 29°46' W 095°05'  
Track history (hours):
 
Tides and Currents Weather Stations Pressure Air Temp Water Temp Dewpoint Dewpoint Depression Visibility Wind Speed Wind Dir Waves Ship Positions

Brian O'daniels

Owner: Florida Marine, LLC, Mandeville, LA. More information available from US FCC via Universal Licensing System and Coast Guard Vessel Documentation Center.

Last reported at 2018-Feb-19 06:00 UTC. Time now 2018-Feb-19 06:12 UTC.
Position N 29°31' W 094°31'.

Length 26 m; draft 2.7 m.

Type: Towing. MMSI: 367186410.

Date/timePositionNaut miles runAvg speedWind from/ knotsBaromVisibWave heightAir tempDewpointWater temp
2018-Feb-19 06:00N 29°31' W 094°31'0 0.0
2018-Feb-19 05:30N 29°31' W 094°31'0 0.0
2018-Feb-19 04:57N 29°31' W 094°31'0 0.0
2018-Feb-19 04:30N 29°31' W 094°31'0 0.0
2018-Feb-19 04:00N 29°31' W 094°31'0 0.0
2018-Feb-19 02:27N 29°31' W 094°31'0 0.0
2018-Feb-19 01:09N 29°31' W 094°31'0 0.0
2018-Feb-18 23:06N 29°31' W 094°31'0 0.0
2018-Feb-18 23:00N 29°31' W 094°31'0 0.0
2018-Feb-18 18:39N 29°31' W 094°31'0 0.0
2018-Feb-18 18:30N 29°31' W 094°31'0 0.0
2018-Feb-18 17:57N 29°31' W 094°31'0 0.0
2018-Feb-18 17:27N 29°31' W 094°31'0 0.0
2018-Feb-18 16:27N 29°31' W 094°31'0 0.0
2018-Feb-18 15:09N 29°31' W 094°31'0 0.0
2018-Feb-18 15:00N 29°31' W 094°31'0 0.0
2018-Feb-18 11:32N 29°31' W 094°31'0 0.0
2018-Feb-18 09:23N 29°31' W 094°31'0 0.0
2018-Feb-18 08:59N 29°31' W 094°31'0 0.0
2018-Feb-18 08:29N 29°31' W 094°31'0 0.0
2018-Feb-18 07:56N 29°31' W 094°31'0 0.0
2018-Feb-18 02:41N 29°31' W 094°31'0 0.0
2018-Feb-18 02:26N 29°31' W 094°31'0 0.0
2018-Feb-18 01:44N 29°31' W 094°31'0 0.0
2018-Feb-18 01:29N 29°31' W 094°31'0 0.0
2018-Feb-18 00:20N 29°31' W 094°31'0 0.1
2018-Feb-17 23:46N 29°31' W 094°31'1 1.6
2018-Feb-17 23:00N 29°30' W 094°33'0 0.6
2018-Feb-17 22:27N 29°30' W 094°33'2 3.8
2018-Feb-17 21:57N 29°29' W 094°35'2 3.4
2018-Feb-17 21:22N 29°29' W 094°37'16 1.0
2018-Feb-17 06:12N 29°22' W 094°53'0 0.0
2018-Feb-17 05:57N 29°22' W 094°53'0 0.1
2018-Feb-17 02:15N 29°22' W 094°53'1 2.3
2018-Feb-17 01:59N 29°23' W 094°53'3 5.0
2018-Feb-17 01:29N 29°22' W 094°50'2 3.6
2018-Feb-17 01:00N 29°22' W 094°48'2 3.5
2018-Feb-17 00:27N 29°24' W 094°49'2 3.0
2018-Feb-16 23:38N 29°26' W 094°50'1 3.5
2018-Feb-16 23:29N 29°26' W 094°50'2 4.0
2018-Feb-16 22:59N 29°28' W 094°51'2 3.3
2018-Feb-16 22:30N 29°30' W 094°52'2 3.5
2018-Feb-16 22:01N 29°31' W 094°53'2 3.8
2018-Feb-16 21:30N 29°33' W 094°54'3 6.5
2018-Feb-16 21:01N 29°35' W 094°56'3 6.3
2018-Feb-16 20:31N 29°38' W 094°58'4 7.1
2018-Feb-16 20:01N 29°42' W 094°60'3 5.3
2018-Feb-16 19:30N 29°44' W 095°02'3 5.5
2018-Feb-16 19:00N 29°45' W 095°04'1 2.1
2018-Feb-16 18:28N 29°46' W 095°05'1 2.3
2018-Feb-16 17:55N 29°47' W 095°04'0 0.0
2018-Feb-16 17:28N 29°47' W 095°04'0 0.0
2018-Feb-16 01:47N 29°47' W 095°04'0 0.0
2018-Feb-16 01:29N 29°47' W 095°04'0 0.0
2018-Feb-15 05:43N 29°47' W 095°04'0 0.0
2018-Feb-15 05:28N 29°47' W 095°04'  
2018-Feb-12 10:41N 29°47' W 095°05'1 3.0
2018-Feb-12 10:25N 29°46' W 095°05'  

Dump ship's entire track history